sensor_id;sensor_type;location;lat;lon;timestamp;temperature;humidity
66928;DHT22;59882;45.624;11.698;2023-03-04T00:01:04;7.40;70.20
66928;DHT22;59882;45.624;11.698;2023-03-04T00:03:30;7.30;70.10
66928;DHT22;59882;45.624;11.698;2023-03-04T00:05:55;7.30;70.70
66928;DHT22;59882;45.624;11.698;2023-03-04T00:08:21;7.20;70.80
66928;DHT22;59882;45.624;11.698;2023-03-04T00:10:47;7.10;70.40
66928;DHT22;59882;45.624;11.698;2023-03-04T00:13:12;7.10;70.00
66928;DHT22;59882;45.624;11.698;2023-03-04T00:15:38;7.20;70.20
66928;DHT22;59882;45.624;11.698;2023-03-04T00:18:03;7.20;70.70
66928;DHT22;59882;45.624;11.698;2023-03-04T00:20:29;7.10;70.70
66928;DHT22;59882;45.624;11.698;2023-03-04T00:22:55;7.10;70.60
66928;DHT22;59882;45.624;11.698;2023-03-04T00:25:20;7.10;70.40
66928;DHT22;59882;45.624;11.698;2023-03-04T00:27:46;7.00;70.30
66928;DHT22;59882;45.624;11.698;2023-03-04T00:30:12;7.00;70.60
66928;DHT22;59882;45.624;11.698;2023-03-04T00:32:37;7.10;70.60
66928;DHT22;59882;45.624;11.698;2023-03-04T00:35:05;7.10;70.90
66928;DHT22;59882;45.624;11.698;2023-03-04T00:37:31;7.00;70.30
66928;DHT22;59882;45.624;11.698;2023-03-04T00:39:56;7.10;70.20
66928;DHT22;59882;45.624;11.698;2023-03-04T00:42:22;7.10;70.40
66928;DHT22;59882;45.624;11.698;2023-03-04T00:44:48;7.10;70.30
66928;DHT22;59882;45.624;11.698;2023-03-04T00:47:14;7.10;71.10
66928;DHT22;59882;45.624;11.698;2023-03-04T00:49:39;7.10;70.80
66928;DHT22;59882;45.624;11.698;2023-03-04T00:52:05;7.10;70.40
66928;DHT22;59882;45.624;11.698;2023-03-04T00:54:31;7.20;70.40
66928;DHT22;59882;45.624;11.698;2023-03-04T00:56:57;7.20;70.70
66928;DHT22;59882;45.624;11.698;2023-03-04T00:59:23;7.20;70.30
66928;DHT22;59882;45.624;11.698;2023-03-04T01:01:48;7.20;70.80
66928;DHT22;59882;45.624;11.698;2023-03-04T01:04:14;7.20;70.80
66928;DHT22;59882;45.624;11.698;2023-03-04T01:06:39;7.10;71.20
66928;DHT22;59882;45.624;11.698;2023-03-04T01:09:05;7.10;71.30
66928;DHT22;59882;45.624;11.698;2023-03-04T01:11:33;7.10;71.00
66928;DHT22;59882;45.624;11.698;2023-03-04T01:13:58;7.10;70.90
66928;DHT22;59882;45.624;11.698;2023-03-04T01:16:24;7.10;71.40
66928;DHT22;59882;45.624;11.698;2023-03-04T01:18:50;7.00;71.50
66928;DHT22;59882;45.624;11.698;2023-03-04T01:21:15;6.90;71.50
66928;DHT22;59882;45.624;11.698;2023-03-04T01:23:41;6.90;71.50
66928;DHT22;59882;45.624;11.698;2023-03-04T01:26:06;6.90;71.80
66928;DHT22;59882;45.624;11.698;2023-03-04T01:28:32;6.80;72.10
66928;DHT22;59882;45.624;11.698;2023-03-04T01:31:01;6.80;71.80
66928;DHT22;59882;45.624;11.698;2023-03-04T01:33:27;6.70;71.40
66928;DHT22;59882;45.624;11.698;2023-03-04T01:35:52;6.80;71.40
66928;DHT22;59882;45.624;11.698;2023-03-04T01:38:18;6.80;72.00
66928;DHT22;59882;45.624;11.698;2023-03-04T01:40:44;6.80;71.30
66928;DHT22;59882;45.624;11.698;2023-03-04T01:43:20;6.80;71.90
66928;DHT22;59882;45.624;11.698;2023-03-04T01:45:51;6.80;72.00
66928;DHT22;59882;45.624;11.698;2023-03-04T01:48:29;6.70;71.90
66928;DHT22;59882;45.624;11.698;2023-03-04T01:50:56;6.70;71.80
66928;DHT22;59882;45.624;11.698;2023-03-04T01:53:26;6.70;72.00
66928;DHT22;59882;45.624;11.698;2023-03-04T01:55:55;6.70;71.60
66928;DHT22;59882;45.624;11.698;2023-03-04T01:58:28;6.70;71.60
66928;DHT22;59882;45.624;11.698;2023-03-04T02:00:54;6.80;72.30
66928;DHT22;59882;45.624;11.698;2023-03-04T02:03:19;6.80;72.20
66928;DHT22;59882;45.624;11.698;2023-03-04T02:05:48;6.80;72.10
66928;DHT22;59882;45.624;11.698;2023-03-04T02:08:15;6.80;71.90
66928;DHT22;59882;45.624;11.698;2023-03-04T02:10:42;6.80;72.00
66928;DHT22;59882;45.624;11.698;2023-03-04T02:13:09;6.80;71.80
66928;DHT22;59882;45.624;11.698;2023-03-04T02:15:35;6.60;71.30
66928;DHT22;59882;45.624;11.698;2023-03-04T02:18:01;6.50;71.40
66928;DHT22;59882;45.624;11.698;2023-03-04T02:20:33;6.40;71.80
66928;DHT22;59882;45.624;11.698;2023-03-04T02:25:49;6.20;72.30
66928;DHT22;59882;45.624;11.698;2023-03-04T02:28:17;6.10;72.40
66928;DHT22;59882;45.624;11.698;2023-03-04T02:30:43;6.00;72.80
66928;DHT22;59882;45.624;11.698;2023-03-04T02:33:18;6.00;72.50
66928;DHT22;59882;45.624;11.698;2023-03-04T02:35:44;6.00;72.70
66928;DHT22;59882;45.624;11.698;2023-03-04T02:38:11;5.90;72.80
66928;DHT22;59882;45.624;11.698;2023-03-04T02:40:38;5.90;72.30
66928;DHT22;59882;45.624;11.698;2023-03-04T02:43:07;5.90;72.80
66928;DHT22;59882;45.624;11.698;2023-03-04T02:48:06;5.90;72.90
66928;DHT22;59882;45.624;11.698;2023-03-04T02:50:38;5.80;73.10
66928;DHT22;59882;45.624;11.698;2023-03-04T02:53:05;5.80;73.40
66928;DHT22;59882;45.624;11.698;2023-03-04T02:55:30;5.80;74.10
66928;DHT22;59882;45.624;11.698;2023-03-04T02:57:57;5.70;73.50
66928;DHT22;59882;45.624;11.698;2023-03-04T03:00:22;5.70;74.00
66928;DHT22;59882;45.624;11.698;2023-03-04T03:02:48;5.60;73.70
66928;DHT22;59882;45.624;11.698;2023-03-04T03:05:14;5.60;74.00
66928;DHT22;59882;45.624;11.698;2023-03-04T03:07:39;5.50;73.90
66928;DHT22;59882;45.624;11.698;2023-03-04T03:10:05;5.50;73.50
66928;DHT22;59882;45.624;11.698;2023-03-04T03:12:31;5.50;74.20
66928;DHT22;59882;45.624;11.698;2023-03-04T03:14:57;5.50;74.50
66928;DHT22;59882;45.624;11.698;2023-03-04T03:17:22;5.40;74.10
66928;DHT22;59882;45.624;11.698;2023-03-04T03:19:48;5.50;74.40
66928;DHT22;59882;45.624;11.698;2023-03-04T03:22:13;5.50;74.30
66928;DHT22;59882;45.624;11.698;2023-03-04T03:24:39;5.50;74.50
66928;DHT22;59882;45.624;11.698;2023-03-04T03:27:05;5.50;74.90
66928;DHT22;59882;45.624;11.698;2023-03-04T03:29:30;5.50;74.70
66928;DHT22;59882;45.624;11.698;2023-03-04T03:31:56;5.50;74.90
66928;DHT22;59882;45.624;11.698;2023-03-04T03:34:22;5.50;74.80
66928;DHT22;59882;45.624;11.698;2023-03-04T03:36:47;5.50;74.70
66928;DHT22;59882;45.624;11.698;2023-03-04T03:39:13;5.50;75.00
66928;DHT22;59882;45.624;11.698;2023-03-04T03:41:40;5.40;74.90
66928;DHT22;59882;45.624;11.698;2023-03-04T03:44:06;5.50;74.40
66928;DHT22;59882;45.624;11.698;2023-03-04T03:46:32;5.40;74.30
66928;DHT22;59882;45.624;11.698;2023-03-04T03:49:00;5.40;74.20
66928;DHT22;59882;45.624;11.698;2023-03-04T03:51:25;5.50;74.00
66928;DHT22;59882;45.624;11.698;2023-03-04T03:53:51;5.50;74.10
66928;DHT22;59882;45.624;11.698;2023-03-04T03:56:17;5.40;74.20
66928;DHT22;59882;45.624;11.698;2023-03-04T03:58:42;5.40;74.20
66928;DHT22;59882;45.624;11.698;2023-03-04T04:01:08;5.40;74.30
66928;DHT22;59882;45.624;11.698;2023-03-04T04:03:34;5.40;74.40
66928;DHT22;59882;45.624;11.698;2023-03-04T04:06:00;5.40;74.40
66928;DHT22;59882;45.624;11.698;2023-03-04T04:08:26;5.40;74.20
66928;DHT22;59882;45.624;11.698;2023-03-04T04:10:51;5.40;74.20
66928;DHT22;59882;45.624;11.698;2023-03-04T04:13:17;5.50;74.60
66928;DHT22;59882;45.624;11.698;2023-03-04T04:15:42;5.50;74.50
66928;DHT22;59882;45.624;11.698;2023-03-04T04:18:08;5.50;74.50
66928;DHT22;59882;45.624;11.698;2023-03-04T04:20:35;5.60;74.40
66928;DHT22;59882;45.624;11.698;2023-03-04T04:23:01;5.60;74.60
66928;DHT22;59882;45.624;11.698;2023-03-04T04:25:27;5.70;74.60
66928;DHT22;59882;45.624;11.698;2023-03-04T04:27:52;5.60;74.60
66928;DHT22;59882;45.624;11.698;2023-03-04T04:30:18;5.60;74.50
66928;DHT22;59882;45.624;11.698;2023-03-04T04:32:44;5.70;74.50
66928;DHT22;59882;45.624;11.698;2023-03-04T04:35:09;5.70;73.90
66928;DHT22;59882;45.624;11.698;2023-03-04T04:37:35;5.70;73.90
66928;DHT22;59882;45.624;11.698;2023-03-04T04:40:02;5.70;73.70
66928;DHT22;59882;45.624;11.698;2023-03-04T04:42:28;5.60;73.60
66928;DHT22;59882;45.624;11.698;2023-03-04T04:44:53;5.60;73.50
66928;DHT22;59882;45.624;11.698;2023-03-04T04:47:19;5.60;73.40
66928;DHT22;59882;45.624;11.698;2023-03-04T04:49:44;5.60;73.40
66928;DHT22;59882;45.624;11.698;2023-03-04T04:52:10;5.50;73.60
66928;DHT22;59882;45.624;11.698;2023-03-04T04:54:36;5.50;73.50
66928;DHT22;59882;45.624;11.698;2023-03-04T04:57:01;5.40;73.50
66928;DHT22;59882;45.624;11.698;2023-03-04T04:59:27;5.30;73.60
66928;DHT22;59882;45.624;11.698;2023-03-04T05:01:53;5.30;73.50
66928;DHT22;59882;45.624;11.698;2023-03-04T05:04:18;5.30;73.80
66928;DHT22;59882;45.624;11.698;2023-03-04T05:06:44;5.30;73.70
66928;DHT22;59882;45.624;11.698;2023-03-04T05:09:10;5.30;73.60
66928;DHT22;59882;45.624;11.698;2023-03-04T05:11:36;5.30;73.70
66928;DHT22;59882;45.624;11.698;2023-03-04T05:14:01;5.30;73.50
66928;DHT22;59882;45.624;11.698;2023-03-04T05:16:27;5.30;73.60
66928;DHT22;59882;45.624;11.698;2023-03-04T05:18:53;5.20;73.50
66928;DHT22;59882;45.624;11.698;2023-03-04T05:21:18;5.10;73.50
66928;DHT22;59882;45.624;11.698;2023-03-04T05:23:44;5.10;73.70
66928;DHT22;59882;45.624;11.698;2023-03-04T05:26:13;5.10;74.00
66928;DHT22;59882;45.624;11.698;2023-03-04T05:28:39;5.00;74.00
66928;DHT22;59882;45.624;11.698;2023-03-04T05:31:05;5.00;74.50
66928;DHT22;59882;45.624;11.698;2023-03-04T05:33:31;5.00;74.20
66928;DHT22;59882;45.624;11.698;2023-03-04T05:35:57;4.90;74.20
66928;DHT22;59882;45.624;11.698;2023-03-04T05:38:23;5.00;73.90
66928;DHT22;59882;45.624;11.698;2023-03-04T05:40:58;4.90;74.20
66928;DHT22;59882;45.624;11.698;2023-03-04T05:43:25;4.90;74.40
66928;DHT22;59882;45.624;11.698;2023-03-04T05:45:50;4.90;74.40
66928;DHT22;59882;45.624;11.698;2023-03-04T05:48:16;4.80;74.50
66928;DHT22;59882;45.624;11.698;2023-03-04T05:50:42;4.80;74.50
66928;DHT22;59882;45.624;11.698;2023-03-04T05:53:07;4.80;74.10
66928;DHT22;59882;45.624;11.698;2023-03-04T05:55:33;4.80;74.20
66928;DHT22;59882;45.624;11.698;2023-03-04T05:57:59;4.80;74.60
66928;DHT22;59882;45.624;11.698;2023-03-04T06:00:24;4.80;74.70
66928;DHT22;59882;45.624;11.698;2023-03-04T06:02:50;4.80;74.70
66928;DHT22;59882;45.624;11.698;2023-03-04T06:05:16;4.70;74.80
66928;DHT22;59882;45.624;11.698;2023-03-04T06:07:42;4.70;74.70
66928;DHT22;59882;45.624;11.698;2023-03-04T06:10:11;4.70;74.90
66928;DHT22;59882;45.624;11.698;2023-03-04T06:12:37;4.70;74.90
66928;DHT22;59882;45.624;11.698;2023-03-04T06:15:03;4.70;75.10
66928;DHT22;59882;45.624;11.698;2023-03-04T06:17:30;4.60;75.40
66928;DHT22;59882;45.624;11.698;2023-03-04T06:19:56;4.60;75.30
66928;DHT22;59882;45.624;11.698;2023-03-04T06:22:21;4.60;75.70
66928;DHT22;59882;45.624;11.698;2023-03-04T06:24:47;4.70;75.70
66928;DHT22;59882;45.624;11.698;2023-03-04T06:27:13;4.70;76.00
66928;DHT22;59882;45.624;11.698;2023-03-04T06:29:41;4.70;75.90
66928;DHT22;59882;45.624;11.698;2023-03-04T06:32:06;4.80;76.20
66928;DHT22;59882;45.624;11.698;2023-03-04T06:34:32;4.80;76.20
66928;DHT22;59882;45.624;11.698;2023-03-04T06:36:58;4.80;76.60
66928;DHT22;59882;45.624;11.698;2023-03-04T06:39:24;4.80;76.80
66928;DHT22;59882;45.624;11.698;2023-03-04T06:41:49;4.80;76.90
66928;DHT22;59882;45.624;11.698;2023-03-04T06:44:15;4.90;76.90
66928;DHT22;59882;45.624;11.698;2023-03-04T06:46:42;4.90;77.10
66928;DHT22;59882;45.624;11.698;2023-03-04T06:49:07;4.90;77.10
66928;DHT22;59882;45.624;11.698;2023-03-04T06:51:33;4.90;77.00
66928;DHT22;59882;45.624;11.698;2023-03-04T06:53:58;4.90;77.20
66928;DHT22;59882;45.624;11.698;2023-03-04T06:56:24;4.90;77.50
66928;DHT22;59882;45.624;11.698;2023-03-04T06:58:49;4.90;77.60
66928;DHT22;59882;45.624;11.698;2023-03-04T07:01:20;4.90;77.80
66928;DHT22;59882;45.624;11.698;2023-03-04T07:03:48;5.00;78.20
66928;DHT22;59882;45.624;11.698;2023-03-04T07:06:15;4.90;78.30
66928;DHT22;59882;45.624;11.698;2023-03-04T07:08:42;4.90;78.60
66928;DHT22;59882;45.624;11.698;2023-03-04T07:11:08;5.00;78.30
66928;DHT22;59882;45.624;11.698;2023-03-04T07:13:34;5.10;78.40
66928;DHT22;59882;45.624;11.698;2023-03-04T07:16:07;5.10;78.20
66928;DHT22;59882;45.624;11.698;2023-03-04T07:18:32;5.20;78.00
66928;DHT22;59882;45.624;11.698;2023-03-04T07:20:58;5.30;77.80
66928;DHT22;59882;45.624;11.698;2023-03-04T07:23:24;5.40;77.60
66928;DHT22;59882;45.624;11.698;2023-03-04T07:25:49;5.40;77.60
66928;DHT22;59882;45.624;11.698;2023-03-04T07:28:16;5.50;77.40
66928;DHT22;59882;45.624;11.698;2023-03-04T07:30:41;5.60;77.30
66928;DHT22;59882;45.624;11.698;2023-03-04T07:33:07;5.70;77.10
66928;DHT22;59882;45.624;11.698;2023-03-04T07:35:33;5.80;77.30
66928;DHT22;59882;45.624;11.698;2023-03-04T07:37:58;5.80;77.20
66928;DHT22;59882;45.624;11.698;2023-03-04T07:40:24;5.90;76.70
66928;DHT22;59882;45.624;11.698;2023-03-04T07:42:54;6.00;76.50
66928;DHT22;59882;45.624;11.698;2023-03-04T07:45:21;6.10;76.40
66928;DHT22;59882;45.624;11.698;2023-03-04T07:47:47;6.20;76.10
66928;DHT22;59882;45.624;11.698;2023-03-04T07:50:13;6.30;76.50
66928;DHT22;59882;45.624;11.698;2023-03-04T07:52:41;6.30;76.50
66928;DHT22;59882;45.624;11.698;2023-03-04T07:55:08;6.40;76.50
66928;DHT22;59882;45.624;11.698;2023-03-04T07:57:34;6.60;76.20
66928;DHT22;59882;45.624;11.698;2023-03-04T08:00:00;6.60;76.30
66928;DHT22;59882;45.624;11.698;2023-03-04T08:02:25;6.70;76.50
66928;DHT22;59882;45.624;11.698;2023-03-04T08:04:51;6.80;76.10
66928;DHT22;59882;45.624;11.698;2023-03-04T08:07:16;6.80;75.90
66928;DHT22;59882;45.624;11.698;2023-03-04T08:09:42;6.90;75.70
66928;DHT22;59882;45.624;11.698;2023-03-04T08:12:08;7.00;75.60
66928;DHT22;59882;45.624;11.698;2023-03-04T08:14:34;7.10;75.50
66928;DHT22;59882;45.624;11.698;2023-03-04T08:16:59;7.20;74.70
66928;DHT22;59882;45.624;11.698;2023-03-04T08:19:25;7.30;74.20
66928;DHT22;59882;45.624;11.698;2023-03-04T08:21:51;7.40;73.80
66928;DHT22;59882;45.624;11.698;2023-03-04T08:24:16;7.40;73.80
66928;DHT22;59882;45.624;11.698;2023-03-04T08:26:45;7.50;73.80
66928;DHT22;59882;45.624;11.698;2023-03-04T08:29:15;7.60;73.30
66928;DHT22;59882;45.624;11.698;2023-03-04T08:31:41;7.80;72.70
66928;DHT22;59882;45.624;11.698;2023-03-04T08:34:08;7.80;72.90
66928;DHT22;59882;45.624;11.698;2023-03-04T08:36:35;7.90;73.30
66928;DHT22;59882;45.624;11.698;2023-03-04T08:39:02;7.90;73.30
66928;DHT22;59882;45.624;11.698;2023-03-04T08:41:28;8.10;73.40
66928;DHT22;59882;45.624;11.698;2023-03-04T08:43:54;8.10;73.10
66928;DHT22;59882;45.624;11.698;2023-03-04T08:46:19;8.20;72.20
66928;DHT22;59882;45.624;11.698;2023-03-04T08:48:45;8.30;71.90
66928;DHT22;59882;45.624;11.698;2023-03-04T08:51:12;8.40;71.70
66928;DHT22;59882;45.624;11.698;2023-03-04T08:53:39;8.50;71.90
66928;DHT22;59882;45.624;11.698;2023-03-04T08:56:05;8.60;71.80
66928;DHT22;59882;45.624;11.698;2023-03-04T08:58:31;8.70;71.80
66928;DHT22;59882;45.624;11.698;2023-03-04T09:00:58;8.70;71.50
66928;DHT22;59882;45.624;11.698;2023-03-04T09:03:24;8.80;71.30
66928;DHT22;59882;45.624;11.698;2023-03-04T09:05:50;8.90;71.10
66928;DHT22;59882;45.624;11.698;2023-03-04T09:08:16;9.00;70.80
66928;DHT22;59882;45.624;11.698;2023-03-04T09:10:42;9.10;70.40
66928;DHT22;59882;45.624;11.698;2023-03-04T09:13:08;9.20;70.00
66928;DHT22;59882;45.624;11.698;2023-03-04T09:15:36;9.30;68.50
66928;DHT22;59882;45.624;11.698;2023-03-04T09:18:03;9.40;68.50
66928;DHT22;59882;45.624;11.698;2023-03-04T09:20:29;9.50;69.20
66928;DHT22;59882;45.624;11.698;2023-03-04T09:22:55;9.60;69.10
66928;DHT22;59882;45.624;11.698;2023-03-04T09:25:21;9.70;69.00
66928;DHT22;59882;45.624;11.698;2023-03-04T09:27:46;9.80;68.00
66928;DHT22;59882;45.624;11.698;2023-03-04T09:30:12;9.80;66.10
66928;DHT22;59882;45.624;11.698;2023-03-04T09:32:38;10.00;64.70
66928;DHT22;59882;45.624;11.698;2023-03-04T09:35:05;10.10;64.60
66928;DHT22;59882;45.624;11.698;2023-03-04T09:37:31;10.20;62.40
66928;DHT22;59882;45.624;11.698;2023-03-04T09:39:57;10.20;61.80
66928;DHT22;59882;45.624;11.698;2023-03-04T09:42:35;10.30;62.80
66928;DHT22;59882;45.624;11.698;2023-03-04T09:45:05;10.40;61.90
66928;DHT22;59882;45.624;11.698;2023-03-04T09:47:33;10.40;61.40
66928;DHT22;59882;45.624;11.698;2023-03-04T09:50:02;10.50;60.70
66928;DHT22;59882;45.624;11.698;2023-03-04T09:57:54;10.70;58.00
66928;DHT22;59882;45.624;11.698;2023-03-04T10:00:45;10.80;58.10
66928;DHT22;59882;45.624;11.698;2023-03-04T10:06:02;10.90;58.80
66928;DHT22;59882;45.624;11.698;2023-03-04T10:08:37;11.00;59.00
66928;DHT22;59882;45.624;11.698;2023-03-04T10:11:15;11.10;58.50
66928;DHT22;59882;45.624;11.698;2023-03-04T10:16:11;11.20;58.70
66928;DHT22;59882;45.624;11.698;2023-03-04T10:18:44;11.30;56.60
66928;DHT22;59882;45.624;11.698;2023-03-04T10:23:56;11.40;56.00
66928;DHT22;59882;45.624;11.698;2023-03-04T10:26:22;11.50;55.10
66928;DHT22;59882;45.624;11.698;2023-03-04T10:28:52;11.60;55.30
66928;DHT22;59882;45.624;11.698;2023-03-04T10:31:31;11.70;54.40
66928;DHT22;59882;45.624;11.698;2023-03-04T10:34:02;11.80;55.70
66928;DHT22;59882;45.624;11.698;2023-03-04T10:42:06;11.90;54.80
66928;DHT22;59882;45.624;11.698;2023-03-04T10:44:53;11.90;54.50
66928;DHT22;59882;45.624;11.698;2023-03-04T10:47:28;12.10;52.60
66928;DHT22;59882;45.624;11.698;2023-03-04T10:49:56;12.10;52.40
66928;DHT22;59882;45.624;11.698;2023-03-04T10:54:58;12.20;55.20
66928;DHT22;59882;45.624;11.698;2023-03-04T10:57:33;12.30;53.20
66928;DHT22;59882;45.624;11.698;2023-03-04T11:00:02;12.40;53.60
66928;DHT22;59882;45.624;11.698;2023-03-04T11:02:31;12.40;53.10
66928;DHT22;59882;45.624;11.698;2023-03-04T11:07:35;12.60;51.90
66928;DHT22;59882;45.624;11.698;2023-03-04T11:10:25;12.60;52.50
66928;DHT22;59882;45.624;11.698;2023-03-04T11:12:59;12.70;51.40
66928;DHT22;59882;45.624;11.698;2023-03-04T11:15:28;12.80;52.10
66928;DHT22;59882;45.624;11.698;2023-03-04T11:17:58;12.80;52.00
66928;DHT22;59882;45.624;11.698;2023-03-04T11:20:35;12.90;51.10
66928;DHT22;59882;45.624;11.698;2023-03-04T11:23:29;12.90;51.10
66928;DHT22;59882;45.624;11.698;2023-03-04T11:26:08;13.00;50.20
66928;DHT22;59882;45.624;11.698;2023-03-04T11:28:43;13.00;50.90
66928;DHT22;59882;45.624;11.698;2023-03-04T11:31:17;13.10;49.90
66928;DHT22;59882;45.624;11.698;2023-03-04T11:34:07;13.10;51.00
66928;DHT22;59882;45.624;11.698;2023-03-04T11:39:18;13.40;50.30
66928;DHT22;59882;45.624;11.698;2023-03-04T11:41:55;13.40;50.70
66928;DHT22;59882;45.624;11.698;2023-03-04T11:44:23;13.40;50.10
66928;DHT22;59882;45.624;11.698;2023-03-04T11:49:56;13.60;47.80
66928;DHT22;59882;45.624;11.698;2023-03-04T11:56:07;13.80;49.50
66928;DHT22;59882;45.624;11.698;2023-03-04T12:12:33;14.40;48.10
66928;DHT22;59882;45.624;11.698;2023-03-04T12:24:11;14.80;47.50
66928;DHT22;59882;45.624;11.698;2023-03-04T12:27:09;15.00;48.80
66928;DHT22;59882;45.624;11.698;2023-03-04T12:46:27;22.00;36.40
66928;DHT22;59882;45.624;11.698;2023-03-04T12:51:50;25.60;28.10
66928;DHT22;59882;45.624;11.698;2023-03-04T12:54:31;26.70;29.70
66928;DHT22;59882;45.624;11.698;2023-03-04T12:57:10;27.50;28.80
66928;DHT22;59882;45.624;11.698;2023-03-04T12:59:42;28.40;25.30
66928;DHT22;59882;45.624;11.698;2023-03-04T13:10:52;31.40;25.40
66928;DHT22;59882;45.624;11.698;2023-03-04T13:13:40;31.90;22.10
66928;DHT22;59882;45.624;11.698;2023-03-04T13:16:30;32.40;22.90
66928;DHT22;59882;45.624;11.698;2023-03-04T13:18:57;32.70;21.10
66928;DHT22;59882;45.624;11.698;2023-03-04T13:21:28;32.70;21.90
66928;DHT22;59882;45.624;11.698;2023-03-04T13:23:57;32.80;22.20
66928;DHT22;59882;45.624;11.698;2023-03-04T13:28:53;33.20;21.20
66928;DHT22;59882;45.624;11.698;2023-03-04T13:31:24;33.30;20.80
66928;DHT22;59882;45.624;11.698;2023-03-04T13:33:54;33.50;21.50
66928;DHT22;59882;45.624;11.698;2023-03-04T13:36:32;33.50;21.90
66928;DHT22;59882;45.624;11.698;2023-03-04T13:39:22;33.50;21.80
66928;DHT22;59882;45.624;11.698;2023-03-04T13:41:52;33.50;21.30
66928;DHT22;59882;45.624;11.698;2023-03-04T13:47:19;33.10;20.30
66928;DHT22;59882;45.624;11.698;2023-03-04T13:49:45;33.00;21.40
66928;DHT22;59882;45.624;11.698;2023-03-04T13:52:39;33.00;21.50
66928;DHT22;59882;45.624;11.698;2023-03-04T13:55:35;33.00;21.10
66928;DHT22;59882;45.624;11.698;2023-03-04T13:58:24;32.80;21.40
66928;DHT22;59882;45.624;11.698;2023-03-04T14:00:50;32.80;20.20
66928;DHT22;59882;45.624;11.698;2023-03-04T14:03:34;32.40;21.00
66928;DHT22;59882;45.624;11.698;2023-03-04T14:06:21;32.20;22.40
66928;DHT22;59882;45.624;11.698;2023-03-04T14:08:48;32.10;21.50
66928;DHT22;59882;45.624;11.698;2023-03-04T14:11:28;31.90;21.30
66928;DHT22;59882;45.624;11.698;2023-03-04T14:13:59;31.70;21.80
66928;DHT22;59882;45.624;11.698;2023-03-04T14:16:28;31.70;20.90
66928;DHT22;59882;45.624;11.698;2023-03-04T14:19:02;31.60;22.50
66928;DHT22;59882;45.624;11.698;2023-03-04T14:21:29;31.50;20.10
66928;DHT22;59882;45.624;11.698;2023-03-04T14:24:07;31.60;21.20
66928;DHT22;59882;45.624;11.698;2023-03-04T14:26:35;31.50;20.40
66928;DHT22;59882;45.624;11.698;2023-03-04T14:29:01;31.30;20.50
66928;DHT22;59882;45.624;11.698;2023-03-04T14:31:30;31.10;20.30
66928;DHT22;59882;45.624;11.698;2023-03-04T14:33:59;30.80;19.90
66928;DHT22;59882;45.624;11.698;2023-03-04T14:36:32;30.50;20.70
66928;DHT22;59882;45.624;11.698;2023-03-04T14:39:02;30.40;20.20
66928;DHT22;59882;45.624;11.698;2023-03-04T14:41:34;30.10;20.20
66928;DHT22;59882;45.624;11.698;2023-03-04T14:46:41;28.90;21.70
66928;DHT22;59882;45.624;11.698;2023-03-04T14:49:12;28.50;22.20
66928;DHT22;59882;45.624;11.698;2023-03-04T14:57:00;27.40;23.00
66928;DHT22;59882;45.624;11.698;2023-03-04T14:59:31;27.30;23.40
66928;DHT22;59882;45.624;11.698;2023-03-04T15:02:17;27.00;23.30
66928;DHT22;59882;45.624;11.698;2023-03-04T15:04:44;26.40;24.00
66928;DHT22;59882;45.624;11.698;2023-03-04T15:07:19;25.80;24.50
66928;DHT22;59882;45.624;11.698;2023-03-04T15:09:50;24.90;25.30
66928;DHT22;59882;45.624;11.698;2023-03-04T15:12:25;24.20;26.30
66928;DHT22;59882;45.624;11.698;2023-03-04T15:14:55;23.70;26.90
66928;DHT22;59882;45.624;11.698;2023-03-04T15:17:33;23.20;27.40
66928;DHT22;59882;45.624;11.698;2023-03-04T15:25:16;21.70;29.30
66928;DHT22;59882;45.624;11.698;2023-03-04T15:27:43;21.40;30.00
66928;DHT22;59882;45.624;11.698;2023-03-04T15:30:30;21.10;30.20
66928;DHT22;59882;45.624;11.698;2023-03-04T15:32:57;20.80;30.80
66928;DHT22;59882;45.624;11.698;2023-03-04T15:35:23;20.50;31.80
66928;DHT22;59882;45.624;11.698;2023-03-04T15:37:51;20.40;32.30
66928;DHT22;59882;45.624;11.698;2023-03-04T15:42:44;20.10;32.90
66928;DHT22;59882;45.624;11.698;2023-03-04T15:45:34;20.00;33.90
66928;DHT22;59882;45.624;11.698;2023-03-04T15:48:01;20.00;33.70
66928;DHT22;59882;45.624;11.698;2023-03-04T15:50:34;20.10;33.90
66928;DHT22;59882;45.624;11.698;2023-03-04T15:53:02;20.30;34.20
66928;DHT22;59882;45.624;11.698;2023-03-04T15:55:29;20.40;34.10
66928;DHT22;59882;45.624;11.698;2023-03-04T15:57:56;20.60;34.30
66928;DHT22;59882;45.624;11.698;2023-03-04T16:00:23;20.70;34.30
66928;DHT22;59882;45.624;11.698;2023-03-04T16:02:49;20.90;34.30
66928;DHT22;59882;45.624;11.698;2023-03-04T16:05:15;20.90;34.30
66928;DHT22;59882;45.624;11.698;2023-03-04T16:07:45;20.90;34.50
66928;DHT22;59882;45.624;11.698;2023-03-04T16:10:21;20.90;34.10
66928;DHT22;59882;45.624;11.698;2023-03-04T16:12:49;20.90;34.00
66928;DHT22;59882;45.624;11.698;2023-03-04T16:15:23;20.90;34.30
66928;DHT22;59882;45.624;11.698;2023-03-04T16:17:49;20.80;34.60
66928;DHT22;59882;45.624;11.698;2023-03-04T16:20:20;20.70;34.80
66928;DHT22;59882;45.624;11.698;2023-03-04T16:22:50;20.50;35.20
66928;DHT22;59882;45.624;11.698;2023-03-04T16:25:19;20.40;35.60
66928;DHT22;59882;45.624;11.698;2023-03-04T16:27:45;20.30;35.70
66928;DHT22;59882;45.624;11.698;2023-03-04T16:30:17;20.20;36.10
66928;DHT22;59882;45.624;11.698;2023-03-04T16:32:43;20.00;36.60
66928;DHT22;59882;45.624;11.698;2023-03-04T16:35:09;19.90;36.80
66928;DHT22;59882;45.624;11.698;2023-03-04T16:37:35;19.60;37.50
66928;DHT22;59882;45.624;11.698;2023-03-04T16:40:01;19.40;38.80
66928;DHT22;59882;45.624;11.698;2023-03-04T16:42:28;19.10;39.50
66928;DHT22;59882;45.624;11.698;2023-03-04T16:44:55;18.70;40.50
66928;DHT22;59882;45.624;11.698;2023-03-04T16:47:20;18.40;39.80
66928;DHT22;59882;45.624;11.698;2023-03-04T16:49:47;18.20;40.10
66928;DHT22;59882;45.624;11.698;2023-03-04T16:52:29;17.90;42.10
66928;DHT22;59882;45.624;11.698;2023-03-04T16:54:55;17.70;41.10
66928;DHT22;59882;45.624;11.698;2023-03-04T16:57:22;17.40;43.30
66928;DHT22;59882;45.624;11.698;2023-03-04T16:59:48;17.20;44.10
66928;DHT22;59882;45.624;11.698;2023-03-04T17:02:19;16.90;43.00
66928;DHT22;59882;45.624;11.698;2023-03-04T17:04:47;16.70;45.00
66928;DHT22;59882;45.624;11.698;2023-03-04T17:07:13;16.60;44.10
66928;DHT22;59882;45.624;11.698;2023-03-04T17:09:39;16.40;44.60
66928;DHT22;59882;45.624;11.698;2023-03-04T17:12:06;16.20;44.70
66928;DHT22;59882;45.624;11.698;2023-03-04T17:14:33;16.10;44.80
66928;DHT22;59882;45.624;11.698;2023-03-04T17:16:59;16.00;45.20
66928;DHT22;59882;45.624;11.698;2023-03-04T17:19:26;15.90;45.50
66928;DHT22;59882;45.624;11.698;2023-03-04T17:21:55;15.70;45.70
66928;DHT22;59882;45.624;11.698;2023-03-04T17:24:22;15.60;47.20